Hickman, Nebraska
Current Conditions -  °F | °C
As of 6:54 AM on Thursday 27 Nov 2014 (Local Time) from KLNK Reporting Station
Overcast Overcast  
Wind Chill: 17°   Ceiling: 7000
Heat Index: 17°   Visibility: 10mi
Dew Point: 10°   Wind: 0mph
Humidity: 74%   Direction: NA
Pressure: 30.51"   Gusts: NA
Location:  40.62°N, 96.63°W
Report Text: KLNK 271254Z 00000KT 10SM OVC070 M08/M12 A3051 RMK AO2 SLP352 T10831122
Loading
Personal Weather Stations






























Interactive Weather Map New forecast layout! Learn more

10-Day Weather Forecast

Advertisements
Track Severe Weather on mobile